createdAt,value
2022-08-26T00:00:04.155Z,99.99
2022-08-26T00:01:05.104Z,99.99
2022-08-26T00:02:05.573Z,99.99
2022-08-26T00:03:05.485Z,99.99
2022-08-26T00:04:05.942Z,99.99
2022-08-26T00:05:06.843Z,99.99
2022-08-26T00:06:07.986Z,99.99
2022-08-26T00:07:10.123Z,99.99
2022-08-26T00:08:08.740Z,99.99
2022-08-26T00:09:13.487Z,99.99
2022-08-26T00:10:10.393Z,99.99
2022-08-26T00:11:11.105Z,99.99
2022-08-26T00:12:12.216Z,99.99
2022-08-26T00:13:14.207Z,99.99
2022-08-26T00:14:12.703Z,99.99
2022-08-26T00:15:12.910Z,99.99
2022-08-26T00:16:12.940Z,99.99
2022-08-26T00:17:14.695Z,99.99
2022-08-26T00:18:27.803Z,99.99
2022-08-26T00:19:16.656Z,99.99
2022-08-26T00:20:16.471Z,99.99
2022-08-26T00:21:17.004Z,99.99
2022-08-26T00:22:21.538Z,99.99
2022-08-26T00:23:18.210Z,99.99
2022-08-26T00:24:18.186Z,99.99
2022-08-26T00:25:22.238Z,99.99
2022-08-26T00:26:20.162Z,99.99
2022-08-26T00:27:22.474Z,99.99
2022-08-26T00:28:24.538Z,99.99
2022-08-26T00:29:23.078Z,99.99
2022-08-26T00:30:27.937Z,99.99
2022-08-26T00:31:23.732Z,99.99
2022-08-26T00:32:24.292Z,99.99
2022-08-26T00:33:24.759Z,99.99
2022-08-26T00:34:25.304Z,99.99
2022-08-26T00:35:26.004Z,99.99
2022-08-26T00:36:29.622Z,99.99
2022-08-26T00:37:30.110Z,99.99
2022-08-26T00:38:28.120Z,99.99
2022-08-26T00:39:28.385Z,99.99
2022-08-26T00:40:28.729Z,99.99
2022-08-26T00:41:28.916Z,99.99
2022-08-26T00:42:31.363Z,99.99
2022-08-26T00:43:29.992Z,99.99
2022-08-26T00:44:30.220Z,99.99
2022-08-26T00:45:31.297Z,99.99
2022-08-26T00:46:31.820Z,99.99
2022-08-26T00:47:36.479Z,99.99
2022-08-26T00:48:37.173Z,99.99
2022-08-26T00:49:34.993Z,99.99
2022-08-26T00:50:33.554Z,99.99
2022-08-26T00:51:35.187Z,99.99
2022-08-26T00:52:34.471Z,99.99
2022-08-26T00:53:34.945Z,99.99
2022-08-26T00:54:35.361Z,99.99
2022-08-26T00:55:43.625Z,99.99
2022-08-26T00:56:37.145Z,99.99
2022-08-26T00:57:37.713Z,99.99
2022-08-26T00:58:38.576Z,99.99
2022-08-26T00:59:39.540Z,99.99
2022-08-26T01:00:39.952Z,99.99
2022-08-26T01:01:40.139Z,99.99
2022-08-26T01:02:40.010Z,99.99
2022-08-26T01:03:40.936Z,99.99
2022-08-26T01:04:41.439Z,99.99
2022-08-26T01:05:42.062Z,99.99
2022-08-26T01:06:42.477Z,99.99
2022-08-26T01:07:42.720Z,99.99
2022-08-26T01:08:44.120Z,99.99
2022-08-26T01:09:44.968Z,99.99
2022-08-26T01:10:45.283Z,99.99
2022-08-26T01:11:45.639Z,99.99
2022-08-26T01:12:46.259Z,99.99
2022-08-26T01:13:46.454Z,99.99
2022-08-26T01:14:51.991Z,99.99
2022-08-26T01:15:48.215Z,99.99
2022-08-26T01:16:49.940Z,99.99
2022-08-26T01:17:49.343Z,99.99
2022-08-26T01:18:49.996Z,99.99
2022-08-26T01:19:50.385Z,99.99
2022-08-26T01:20:50.623Z,99.99
2022-08-26T01:21:51.058Z,99.99
2022-08-26T01:22:53.140Z,99.99
2022-08-26T01:23:57.321Z,99.99
2022-08-26T01:24:53.543Z,99.99
2022-08-26T01:25:54.767Z,99.99
2022-08-26T01:26:54.898Z,99.99
2022-08-26T01:27:54.670Z,99.99
2022-08-26T01:28:57.211Z,99.99
2022-08-26T01:29:55.802Z,99.99
2022-08-26T01:30:55.839Z,99.99
2022-08-26T01:31:56.794Z,99.99
2022-08-26T01:32:56.995Z,99.99
2022-08-26T01:33:56.589Z,99.99
2022-08-26T01:34:57.040Z,99.99
2022-08-26T01:35:58.146Z,99.99
2022-08-26T01:36:58.655Z,99.99
2022-08-26T01:37:59.390Z,99.99
2022-08-26T01:38:59.843Z,99.99
2022-08-26T01:40:00.548Z,99.99
2022-08-26T01:41:00.747Z,99.99
2022-08-26T01:42:03.110Z,99.99
2022-08-26T01:43:02.468Z,99.99
2022-08-26T01:44:03.115Z,99.99
2022-08-26T01:45:02.798Z,99.99
2022-08-26T01:46:04.313Z,99.99
2022-08-26T01:47:04.989Z,99.99
2022-08-26T01:48:05.588Z,99.99
2022-08-26T01:49:06.393Z,99.99
2022-08-26T01:50:08.047Z,99.99
2022-08-26T01:51:06.556Z,99.99
2022-08-26T01:52:08.533Z,99.99
2022-08-26T01:53:07.718Z,99.99
2022-08-26T01:54:08.044Z,99.99
2022-08-26T01:55:09.212Z,99.99
2022-08-26T01:56:11.051Z,99.99
2022-08-26T01:57:10.830Z,99.99
2022-08-26T01:58:11.782Z,99.99
2022-08-26T01:59:14.808Z,99.99
2022-08-26T02:00:13.040Z,99.99
2022-08-26T02:01:14.993Z,99.99
2022-08-26T02:02:15.267Z,99.99
2022-08-26T02:03:14.822Z,99.99
2022-08-26T02:04:15.435Z,99.99
2022-08-26T02:05:16.505Z,99.99
2022-08-26T02:06:17.994Z,99.99
2022-08-26T02:07:18.080Z,99.99
2022-08-26T02:08:20.609Z,99.99
2022-08-26T02:09:20.310Z,99.99
2022-08-26T02:10:19.780Z,99.99
2022-08-26T02:11:23.714Z,99.99
2022-08-26T02:12:20.013Z,99.99
2022-08-26T02:13:21.259Z,99.99
2022-08-26T02:14:22.023Z,99.99
2022-08-26T02:15:26.696Z,99.99
2022-08-26T02:16:23.886Z,99.99
2022-08-26T02:17:26.681Z,99.99
2022-08-26T02:18:25.210Z,99.99
2022-08-26T02:19:26.607Z,99.99
2022-08-26T02:20:26.522Z,99.99
2022-08-26T02:21:25.751Z,99.99
2022-08-26T02:22:26.872Z,99.99
2022-08-26T02:23:29.605Z,99.99
2022-08-26T02:24:28.915Z,99.99
2022-08-26T02:25:28.520Z,99.99
2022-08-26T02:26:32.374Z,99.99
2022-08-26T02:27:32.186Z,99.99
2022-08-26T02:28:32.302Z,99.99
2022-08-26T02:29:33.350Z,99.99
2022-08-26T02:30:33.286Z,99.99
2022-08-26T02:31:34.011Z,99.99
2022-08-26T02:32:34.708Z,99.99
2022-08-26T02:33:35.899Z,99.99
2022-08-26T02:34:36.899Z,99.99
2022-08-26T02:35:37.251Z,99.99
2022-08-26T02:36:38.112Z,99.99
2022-08-26T02:37:39.434Z,99.99
2022-08-26T02:38:38.834Z,99.99
2022-08-26T02:39:38.586Z,99.99
2022-08-26T02:40:40.825Z,99.99
2022-08-26T02:41:44.113Z,99.99
2022-08-26T02:42:40.437Z,99.99
2022-08-26T02:43:41.176Z,99.99
2022-08-26T02:44:41.504Z,99.99
2022-08-26T02:45:42.525Z,99.99
2022-08-26T02:46:46.956Z,99.99
2022-08-26T02:47:43.320Z,99.99
2022-08-26T02:48:43.572Z,99.99
2022-08-26T02:49:44.229Z,99.99
2022-08-26T02:50:45.133Z,99.99
2022-08-26T02:51:45.453Z,99.99
2022-08-26T02:52:46.211Z,99.99
2022-08-26T02:53:48.102Z,99.99
2022-08-26T02:54:47.250Z,99.99
2022-08-26T02:55:48.869Z,99.99
2022-08-26T02:56:49.060Z,99.99
2022-08-26T02:57:49.718Z,99.99
2022-08-26T02:58:50.738Z,99.99
2022-08-26T02:59:51.549Z,99.99
2022-08-26T03:00:58.369Z,99.99
2022-08-26T03:01:52.877Z,99.99
2022-08-26T03:02:54.636Z,99.99
2022-08-26T03:03:55.078Z,99.99
2022-08-26T03:05:05.862Z,99.99
2022-08-26T03:05:55.220Z,99.99
2022-08-26T03:06:58.315Z,99.99
2022-08-26T03:07:56.098Z,99.99
2022-08-26T03:08:57.168Z,99.99
2022-08-26T03:09:57.435Z,99.99
2022-08-26T03:10:58.273Z,99.99
2022-08-26T03:11:59.646Z,99.99
2022-08-26T03:12:59.802Z,99.99
2022-08-26T03:14:00.469Z,99.99
2022-08-26T03:15:01.060Z,99.99
2022-08-26T03:16:01.980Z,99.99
2022-08-26T03:17:02.380Z,99.99
2022-08-26T03:18:03.051Z,99.99
2022-08-26T03:19:04.379Z,99.99
2022-08-26T03:20:04.970Z,99.99
2022-08-26T03:21:05.901Z,99.99
2022-08-26T03:22:06.115Z,99.99
2022-08-26T03:23:09.920Z,99.99
2022-08-26T03:24:08.102Z,99.99
2022-08-26T03:25:08.878Z,99.99
2022-08-26T03:26:10.938Z,99.99
2022-08-26T03:27:12.825Z,99.99
2022-08-26T03:28:10.102Z,99.99
2022-08-26T03:29:10.313Z,99.99
2022-08-26T03:30:11.704Z,99.99
2022-08-26T03:31:11.074Z,99.99
2022-08-26T03:32:11.424Z,99.99
2022-08-26T03:33:12.113Z,99.99
2022-08-26T03:34:12.207Z,99.99
2022-08-26T03:35:12.483Z,99.99
2022-08-26T03:36:12.671Z,99.99
2022-08-26T03:37:13.489Z,99.99
2022-08-26T03:38:15.191Z,99.99
2022-08-26T03:39:16.478Z,99.99
2022-08-26T03:40:16.142Z,99.99
2022-08-26T03:41:17.051Z,99.99
2022-08-26T03:42:17.288Z,99.99
2022-08-26T03:43:18.541Z,99.99
2022-08-26T03:44:18.487Z,99.99
2022-08-26T03:45:20.425Z,99.99
2022-08-26T03:46:19.519Z,99.99
2022-08-26T03:47:20.210Z,99.99
2022-08-26T03:48:20.109Z,99.99
2022-08-26T03:49:20.724Z,99.99
2022-08-26T03:50:22.741Z,99.99
2022-08-26T03:51:24.308Z,99.99
2022-08-26T03:52:22.706Z,99.99
2022-08-26T03:53:25.979Z,99.99
2022-08-26T03:54:24.199Z,99.99
2022-08-26T03:55:29.153Z,99.99
2022-08-26T03:56:25.186Z,99.99
2022-08-26T03:57:27.327Z,99.99
2022-08-26T03:58:26.458Z,99.99
2022-08-26T03:59:26.927Z,99.99
2022-08-26T04:00:27.180Z,99.99
2022-08-26T04:01:28.846Z,99.99
2022-08-26T04:02:28.918Z,99.99
2022-08-26T04:03:29.780Z,99.99
2022-08-26T04:04:30.453Z,99.99
2022-08-26T04:05:30.354Z,99.99
2022-08-26T04:06:31.267Z,99.99
2022-08-26T04:07:32.005Z,99.99
2022-08-26T04:08:33.548Z,99.99
2022-08-26T04:09:33.074Z,99.99
2022-08-26T04:10:34.314Z,99.99
2022-08-26T04:11:35.760Z,99.99
2022-08-26T04:12:35.173Z,99.99
2022-08-26T04:13:35.074Z,99.99
2022-08-26T04:14:37.835Z,99.99
2022-08-26T04:15:37.117Z,99.99
2022-08-26T04:16:37.809Z,99.99
2022-08-26T04:17:37.943Z,99.99
2022-08-26T04:18:46.746Z,99.99
2022-08-26T04:19:39.369Z,99.99
2022-08-26T04:20:40.687Z,99.99
2022-08-26T04:21:41.082Z,99.99
2022-08-26T04:22:41.612Z,99.99
2022-08-26T04:23:53.390Z,99.99
2022-08-26T04:24:43.275Z,99.99
2022-08-26T04:25:45.959Z,99.99
2022-08-26T04:26:47.733Z,99.99
2022-08-26T04:27:46.231Z,99.99
2022-08-26T04:28:45.594Z,99.99
2022-08-26T04:29:45.679Z,99.99
2022-08-26T04:30:47.942Z,99.99
2022-08-26T04:31:46.981Z,99.99
2022-08-26T04:32:47.930Z,99.99
2022-08-26T04:33:49.671Z,99.99
2022-08-26T04:34:50.411Z,99.99
2022-08-26T04:35:53.311Z,99.99
2022-08-26T04:36:51.381Z,99.99
2022-08-26T04:37:52.283Z,99.99
2022-08-26T04:38:52.942Z,99.99
2022-08-26T04:39:54.110Z,99.99
2022-08-26T04:40:54.996Z,99.99
2022-08-26T04:41:57.734Z,99.99
2022-08-26T04:42:56.421Z,99.99
2022-08-26T04:43:56.393Z,99.99
2022-08-26T04:44:56.657Z,99.99
2022-08-26T04:45:57.081Z,99.99
2022-08-26T04:46:58.386Z,99.99
2022-08-26T04:47:58.556Z,99.99
2022-08-26T04:48:59.209Z,99.99
2022-08-26T04:50:00.173Z,99.99
2022-08-26T04:51:01.119Z,99.99
2022-08-26T04:52:02.285Z,99.99
2022-08-26T04:53:02.711Z,99.99
2022-08-26T04:54:03.361Z,99.99
2022-08-26T04:55:04.324Z,99.99
2022-08-26T04:56:04.856Z,99.99
2022-08-26T04:57:04.664Z,99.99
2022-08-26T04:58:05.934Z,99.99
2022-08-26T04:59:06.451Z,99.99
2022-08-26T05:00:07.023Z,99.99
2022-08-26T05:01:07.114Z,99.99
2022-08-26T05:02:07.893Z,99.99
2022-08-26T05:03:09.634Z,99.99
2022-08-26T05:04:13.593Z,99.99
2022-08-26T05:05:09.626Z,99.99
2022-08-26T05:06:10.609Z,99.99
2022-08-26T05:07:11.883Z,99.99
2022-08-26T05:08:12.208Z,99.99
2022-08-26T05:09:12.985Z,99.99
2022-08-26T05:10:14.300Z,99.99
2022-08-26T05:11:14.917Z,99.99
2022-08-26T05:12:14.731Z,99.99
2022-08-26T05:13:17.061Z,99.99
2022-08-26T05:14:15.956Z,99.99
2022-08-26T05:15:16.546Z,99.99
2022-08-26T05:16:17.261Z,99.99
2022-08-26T05:17:20.413Z,99.99
2022-08-26T05:18:19.960Z,99.99
2022-08-26T05:19:24.164Z,99.99
2022-08-26T05:20:23.908Z,99.99
2022-08-26T05:21:21.757Z,99.99
2022-08-26T05:22:23.814Z,99.99
2022-08-26T05:23:23.076Z,99.99
2022-08-26T05:24:23.403Z,99.99
2022-08-26T05:25:24.131Z,99.99
2022-08-26T05:26:28.663Z,99.99
2022-08-26T05:27:25.495Z,99.99
2022-08-26T05:28:26.413Z,99.99
2022-08-26T05:29:26.914Z,99.99
2022-08-26T05:30:27.524Z,99.99
2022-08-26T05:31:28.035Z,99.99
2022-08-26T05:32:28.992Z,99.99
2022-08-26T05:33:29.241Z,99.99
2022-08-26T05:34:35.637Z,99.99
2022-08-26T05:35:30.405Z,99.99
2022-08-26T05:36:32.111Z,99.99
2022-08-26T05:37:31.222Z,99.99
2022-08-26T05:38:35.840Z,99.99
2022-08-26T05:39:32.240Z,99.99
2022-08-26T05:40:33.245Z,99.99
2022-08-26T05:41:40.582Z,99.99
2022-08-26T05:42:34.602Z,99.99
2022-08-26T05:43:35.639Z,99.99
2022-08-26T05:44:58.690Z,99.99
2022-08-26T05:45:35.330Z,99.99
2022-08-26T05:46:35.576Z,99.99
2022-08-26T05:47:36.112Z,99.99
2022-08-26T05:48:36.247Z,99.99
2022-08-26T05:49:39.550Z,99.99
2022-08-26T05:50:38.276Z,99.99
2022-08-26T05:51:39.124Z,99.99
2022-08-26T05:52:39.466Z,99.99
2022-08-26T05:53:43.729Z,99.99
2022-08-26T05:54:41.181Z,99.99
2022-08-26T05:55:44.471Z,99.99
2022-08-26T05:56:41.749Z,99.99
2022-08-26T05:57:48.305Z,99.99
2022-08-26T05:58:42.825Z,99.99
2022-08-26T05:59:44.331Z,99.99
2022-08-26T06:00:47.049Z,99.99
2022-08-26T06:01:44.869Z,99.99
2022-08-26T06:02:45.494Z,99.99
2022-08-26T06:03:45.608Z,99.99
2022-08-26T06:04:48.101Z,99.99
2022-08-26T06:05:47.037Z,99.99
2022-08-26T06:06:50.613Z,99.99
2022-08-26T06:07:48.120Z,99.99
2022-08-26T06:08:49.691Z,99.99
2022-08-26T06:09:51.412Z,99.99
2022-08-26T06:10:51.138Z,99.99
2022-08-26T06:11:51.413Z,99.99
2022-08-26T06:12:51.347Z,99.99
2022-08-26T06:13:53.834Z,99.99
2022-08-26T06:14:54.573Z,99.99
2022-08-26T06:15:53.926Z,99.99
2022-08-26T06:16:53.753Z,99.74
2022-08-26T06:17:54.269Z,99.64
2022-08-26T06:18:54.693Z,99.99
2022-08-26T06:19:55.853Z,99.44
2022-08-26T06:21:03.345Z,99.99
2022-08-26T06:21:59.566Z,99.64
2022-08-26T06:22:56.634Z,99.84
2022-08-26T06:23:57.597Z,99.44
2022-08-26T06:24:57.653Z,99.35
2022-08-26T06:25:58.079Z,99.06
2022-08-26T06:26:59.091Z,99.79
2022-08-26T06:27:59.535Z,99.21
2022-08-26T06:28:59.697Z,96.8
2022-08-26T06:30:00.234Z,97.47
2022-08-26T06:31:00.348Z,97.67
2022-08-26T06:32:01.844Z,98.49
2022-08-26T06:33:03.016Z,97.72
2022-08-26T06:34:05.233Z,97.81
2022-08-26T06:35:04.468Z,98
2022-08-26T06:36:04.665Z,98.2
2022-08-26T06:37:07.021Z,97.62
2022-08-26T06:38:06.055Z,97.33
2022-08-26T06:39:06.407Z,96.56
2022-08-26T06:40:09.024Z,96.94
2022-08-26T06:41:07.988Z,97.91
2022-08-26T06:42:11.837Z,97.24
2022-08-26T06:43:09.165Z,96.85
2022-08-26T06:44:09.176Z,95.98
2022-08-26T06:45:10.127Z,95.69
2022-08-26T06:46:10.449Z,95.93
2022-08-26T06:47:10.821Z,95.93
2022-08-26T06:48:12.372Z,95.36
2022-08-26T06:49:13.614Z,95.45
2022-08-26T06:50:12.457Z,94.48
2022-08-26T06:51:13.451Z,94.2
2022-08-26T06:52:14.278Z,95.26
2022-08-26T06:53:14.836Z,93.18
2022-08-26T06:54:15.488Z,90.81
2022-08-26T06:55:17.234Z,88.64
2022-08-26T06:56:17.403Z,88.1
2022-08-26T06:57:17.129Z,85.98
2022-08-26T06:58:18.619Z,85.69
2022-08-26T06:59:18.172Z,85.94
2022-08-26T07:00:20.237Z,86.03
2022-08-26T07:01:20.398Z,87.29
2022-08-26T07:02:22.960Z,88.06
2022-08-26T07:03:20.991Z,87.77
2022-08-26T07:06:25.127Z,89.12
2022-08-26T07:07:27.573Z,89.56
2022-08-26T07:08:26.184Z,88.31
2022-08-26T07:09:27.336Z,86.8
2022-08-26T07:10:27.305Z,86.52
2022-08-26T07:11:29.698Z,84.88
2022-08-26T07:12:30.557Z,84.43
2022-08-26T07:13:35.922Z,83.56
2022-08-26T07:14:29.468Z,83.27
2022-08-26T07:15:36.894Z,82.83
2022-08-26T07:16:32.241Z,81.38
2022-08-26T07:17:32.799Z,81.23
2022-08-26T07:18:33.255Z,80.26
2022-08-26T07:20:34.535Z,80.36
2022-08-26T07:21:35.123Z,80.84
2022-08-26T07:22:35.696Z,81.19
2022-08-26T07:23:35.498Z,81.19
2022-08-26T07:25:37.530Z,81.34
2022-08-26T07:26:37.674Z,82.21
2022-08-26T07:27:38.548Z,81.73
2022-08-26T07:28:39.209Z,83.08
2022-08-26T07:29:39.210Z,80.08
2022-08-26T07:30:40.741Z,80.95
2022-08-26T07:31:47.367Z,81.92
2022-08-26T07:32:41.576Z,81.24
2022-08-26T07:33:42.123Z,82.11
2022-08-26T07:34:42.329Z,79.83
2022-08-26T07:35:43.123Z,81.29
2022-08-26T07:36:43.933Z,82.45
2022-08-26T07:37:44.934Z,82.64
2022-08-26T07:38:45.087Z,81.87
2022-08-26T07:39:46.198Z,81.38
2022-08-26T07:40:45.967Z,82.73
2022-08-26T07:41:47.983Z,81.23
2022-08-26T07:42:47.065Z,81.13
2022-08-26T07:43:48.931Z,81.32
2022-08-26T07:44:48.615Z,81.32
2022-08-26T07:45:49.196Z,80.69
2022-08-26T07:46:52.491Z,81.37
2022-08-26T07:48:01.525Z,81.07
2022-08-26T07:49:01.790Z,81.17
2022-08-26T07:50:02.465Z,83.98
2022-08-26T07:51:03.336Z,82.29
2022-08-26T07:52:03.658Z,81.13
2022-08-26T07:53:05.797Z,80.07
2022-08-26T07:54:05.297Z,80.88
2022-08-26T07:55:05.298Z,81.37
2022-08-26T07:56:05.503Z,80.79
2022-08-26T08:00:10.867Z,79.52
2022-08-26T08:01:12.814Z,79.72
2022-08-26T08:02:11.858Z,80.49
2022-08-26T08:03:12.806Z,80.69
2022-08-26T08:04:15.798Z,81.27
2022-08-26T08:05:14.273Z,80.79
2022-08-26T08:06:14.933Z,82.23
2022-08-26T08:07:17.102Z,82.91
2022-08-26T08:08:34.228Z,82.23
2022-08-26T08:09:17.339Z,83.59
2022-08-26T08:10:18.231Z,82.14
2022-08-26T08:11:18.079Z,82.62
2022-08-26T08:12:19.498Z,82.62
2022-08-26T08:13:20.422Z,82.53
2022-08-26T08:14:23.305Z,83.4
2022-08-26T08:15:22.023Z,83.49
2022-08-26T08:16:21.455Z,82.53
2022-08-26T08:17:21.945Z,80.11
2022-08-26T08:18:22.491Z,80.05
2022-08-26T08:19:23.802Z,79.57
2022-08-26T08:20:24.801Z,80.24
2022-08-26T08:21:30.164Z,79.66
2022-08-26T08:22:32.725Z,78.05
2022-08-26T08:23:32.407Z,76.7
2022-08-26T08:24:32.397Z,76.51
2022-08-26T08:25:33.444Z,77.37
2022-08-26T08:26:34.317Z,77.53
2022-08-26T08:27:35.473Z,77.14
2022-08-26T08:28:35.610Z,77.82
2022-08-26T08:29:36.172Z,78.21
2022-08-26T08:30:40.270Z,77.57
2022-08-26T08:32:03.754Z,77.34
2022-08-26T08:33:03.522Z,77.67
2022-08-26T08:34:04.208Z,78.25
2022-08-26T08:35:10.760Z,78.74
2022-08-26T08:36:04.552Z,79.22
2022-08-26T08:37:08.581Z,77.47
2022-08-26T08:38:09.443Z,77.19
2022-08-26T08:39:06.604Z,77.51
2022-08-26T08:40:07.205Z,79.55
2022-08-26T08:41:11.020Z,76.25
2022-08-26T08:42:08.640Z,76.29
2022-08-26T08:43:09.884Z,76.19
2022-08-26T08:44:09.144Z,75.03
2022-08-26T08:45:09.730Z,73.09
2022-08-26T08:46:10.868Z,73.48
2022-08-26T08:47:11.622Z,72.83
2022-08-26T08:48:12.805Z,72.64
2022-08-26T08:49:13.447Z,71.09
2022-08-26T08:50:13.042Z,72
2022-08-26T08:51:14.251Z,72.09
2022-08-26T08:52:16.794Z,71.22
2022-08-26T08:53:15.619Z,71.42
2022-08-26T08:54:16.229Z,71.22
2022-08-26T08:55:20.318Z,71.06
2022-08-26T08:56:18.545Z,70
2022-08-26T08:57:18.847Z,69.51
2022-08-26T08:58:19.727Z,69.8
2022-08-26T08:59:19.388Z,69.22
2022-08-26T09:00:21.436Z,69.22
2022-08-26T09:01:20.811Z,69.8
2022-08-26T09:02:22.180Z,70
2022-08-26T09:03:22.014Z,69.51
2022-08-26T09:04:22.912Z,68.83
2022-08-26T09:05:23.400Z,68.73
2022-08-26T09:06:24.199Z,68.77
2022-08-26T09:07:25.144Z,68.38
2022-08-26T09:08:26.090Z,68.12
2022-08-26T09:09:27.363Z,66.02
2022-08-26T09:10:28.736Z,64.98
2022-08-26T09:11:28.146Z,63.65
2022-08-26T09:12:34.940Z,62.99
2022-08-26T09:13:31.687Z,62.47
2022-08-26T09:14:32.010Z,61.01
2022-08-26T09:15:34.136Z,59.58
2022-08-26T09:16:30.516Z,58.83
2022-08-26T09:17:30.489Z,58.83
2022-08-26T09:18:30.665Z,58.92
2022-08-26T09:19:32.063Z,58.73
2022-08-26T09:20:32.089Z,58.37
2022-08-26T09:21:32.547Z,57.98
2022-08-26T09:22:33.309Z,56.64
2022-08-26T09:23:35.980Z,57.06
2022-08-26T09:24:37.321Z,56.67
2022-08-26T09:25:36.767Z,56.18
2022-08-26T09:26:36.823Z,56.27
2022-08-26T09:27:38.086Z,56.7
2022-08-26T09:28:37.720Z,56.13
2022-08-26T09:29:38.057Z,55.94
2022-08-26T09:30:38.669Z,55.74
2022-08-26T09:31:40.494Z,55.47
2022-08-26T09:32:39.955Z,55.11
2022-08-26T09:33:40.736Z,54.03
2022-08-26T09:34:41.374Z,54.13
2022-08-26T09:35:41.711Z,54.75
2022-08-26T09:36:46.638Z,53.5
2022-08-26T09:37:42.565Z,52.84
2022-08-26T09:38:45.088Z,51.07
2022-08-26T09:39:43.693Z,50.32
2022-08-26T09:40:44.857Z,50.51
2022-08-26T09:41:44.248Z,50.61
2022-08-26T09:42:45.640Z,50.34
2022-08-26T09:43:46.709Z,50.22
2022-08-26T09:44:45.777Z,49.04
2022-08-26T09:45:58.530Z,49.43
2022-08-26T09:46:47.393Z,49.63
2022-08-26T09:47:48.169Z,49.63
2022-08-26T09:48:48.390Z,49.33
2022-08-26T09:49:49.453Z,50.51
2022-08-26T09:50:51.462Z,51.69
2022-08-26T09:51:55.633Z,49.82
2022-08-26T09:52:50.665Z,51.89
2022-08-26T09:53:52.045Z,50.04
2022-08-26T09:54:52.691Z,48.67
2022-08-26T09:55:54.473Z,49.65
2022-08-26T09:56:53.320Z,50.98
2022-08-26T09:57:54.470Z,51.17
2022-08-26T09:58:55.218Z,50.37
2022-08-26T09:59:56.703Z,51.05
2022-08-26T10:00:56.077Z,51.12
2022-08-26T10:01:58.546Z,51.81
2022-08-26T10:02:59.195Z,51.78
2022-08-26T10:03:57.523Z,50.22
2022-08-26T10:04:57.714Z,50.12
2022-08-26T10:05:57.812Z,52.27
2022-08-26T10:06:58.125Z,53.16
2022-08-26T10:07:58.339Z,54.43
2022-08-26T10:08:59.460Z,53.03
2022-08-26T10:10:01.385Z,52.93
2022-08-26T10:11:01.035Z,52.44
2022-08-26T10:12:02.402Z,51.68
2022-08-26T10:13:03.041Z,50.61
2022-08-26T10:14:03.539Z,50.34
2022-08-26T10:15:03.915Z,50.73
2022-08-26T10:16:05.575Z,52.62
2022-08-26T10:17:06.831Z,51.83
2022-08-26T10:18:06.610Z,51.76
2022-08-26T10:19:07.026Z,51.69
2022-08-26T10:20:09.864Z,51.69
2022-08-26T10:21:08.985Z,49.73
2022-08-26T10:22:08.898Z,48.85
2022-08-26T10:23:09.748Z,48.86
2022-08-26T10:24:11.355Z,47.79
2022-08-26T10:25:10.547Z,47.32
2022-08-26T10:26:12.152Z,48.08
2022-08-26T10:27:13.237Z,49.65
2022-08-26T10:28:12.709Z,49.55
2022-08-26T10:29:12.864Z,49.36
2022-08-26T10:30:15.331Z,48.47
2022-08-26T10:31:14.187Z,48.08
2022-08-26T10:32:19.389Z,49.07
2022-08-26T10:33:14.845Z,49.75
2022-08-26T10:34:17.836Z,49.19
2022-08-26T10:35:16.256Z,48.11
2022-08-26T10:36:20.761Z,47.32
2022-08-26T10:37:21.313Z,47.44
2022-08-26T10:38:19.384Z,46.95
2022-08-26T10:39:20.200Z,47.27
2022-08-26T10:40:20.869Z,46.88
2022-08-26T10:41:22.163Z,45.72
2022-08-26T10:42:21.762Z,46.11
2022-08-26T10:43:22.529Z,45.4
2022-08-26T10:44:22.443Z,47.17
2022-08-26T10:45:22.593Z,47.22
2022-08-26T10:46:23.882Z,48.69
2022-08-26T10:47:24.402Z,48.47
2022-08-26T10:48:26.352Z,48.77
2022-08-26T10:49:26.516Z,47.79
2022-08-26T10:50:28.360Z,49.75
2022-08-26T10:51:28.822Z,48.96
2022-08-26T10:52:34.806Z,50.34
2022-08-26T10:53:37.954Z,50.83
2022-08-26T10:54:33.442Z,48.69
2022-08-26T10:55:34.684Z,48.3
2022-08-26T10:56:35.807Z,47.91
2022-08-26T10:57:36.056Z,48.33
2022-08-26T10:58:35.822Z,47.44
2022-08-26T10:59:36.930Z,47.34
2022-08-26T11:00:38.616Z,47.25
2022-08-26T11:01:40.734Z,46.68
2022-08-26T11:02:38.693Z,48.13
2022-08-26T11:03:39.713Z,46.46
2022-08-26T11:04:43.314Z,46.46
2022-08-26T11:05:40.537Z,47.25
2022-08-26T11:06:42.386Z,46.95
2022-08-26T11:07:42.146Z,46.66
2022-08-26T11:08:44.504Z,46.95
2022-08-26T11:09:43.453Z,48.72
2022-08-26T11:10:45.174Z,47.83
2022-08-26T11:11:44.451Z,46.56
2022-08-26T11:12:44.759Z,47.44
2022-08-26T11:13:47.897Z,47.96
2022-08-26T11:14:59.372Z,47.27
2022-08-26T11:15:47.425Z,47.36
2022-08-26T11:16:48.892Z,46.58
2022-08-26T11:17:48.418Z,46.56
2022-08-26T11:18:48.302Z,46.26
2022-08-26T11:20:09.326Z,47.34
2022-08-26T11:20:51.424Z,47.56
2022-08-26T11:21:52.884Z,47.54
2022-08-26T11:22:53.638Z,47.34
2022-08-26T11:23:56.341Z,46.95
2022-08-26T11:24:53.026Z,47.54
2022-08-26T11:25:53.594Z,45.67
2022-08-26T11:27:01.229Z,45.57
2022-08-26T11:27:54.608Z,45.67
2022-08-26T11:28:55.293Z,47.74
2022-08-26T11:29:58.158Z,48.23
2022-08-26T11:31:03.177Z,48.69
2022-08-26T11:31:57.844Z,48.4
2022-08-26T11:32:57.216Z,48.4
2022-08-26T11:34:00.062Z,47.83
2022-08-26T11:34:58.294Z,48.69
2022-08-26T11:35:59.588Z,47.83
2022-08-26T11:37:00.223Z,48.21
2022-08-26T11:38:00.997Z,48.21
2022-08-26T11:39:00.718Z,49.38
2022-08-26T11:40:02.797Z,49.29
2022-08-26T11:41:01.782Z,48.67
2022-08-26T11:42:03.360Z,48.67
2022-08-26T11:43:05.113Z,47.37
2022-08-26T11:44:06.725Z,48.35
2022-08-26T11:45:05.370Z,49.41
2022-08-26T11:46:04.747Z,46.95
2022-08-26T11:47:05.121Z,45.9
2022-08-26T11:48:05.415Z,48.33
2022-08-26T11:49:05.466Z,50.39
2022-08-26T11:50:05.914Z,49.7
2022-08-26T11:51:07.985Z,49.31
2022-08-26T11:52:08.337Z,49.82
2022-08-26T11:53:08.946Z,49.73
2022-08-26T11:54:09.958Z,49.33
2022-08-26T11:55:10.321Z,50.32
2022-08-26T11:56:11.142Z,48.45
2022-08-26T11:57:17.066Z,49.24
2022-08-26T11:58:13.553Z,50.2
2022-08-26T11:59:14.021Z,50.39
2022-08-26T12:00:20.909Z,50.49
2022-08-26T12:01:17.120Z,49.7
2022-08-26T12:02:16.600Z,50.29
2022-08-26T12:03:18.416Z,49.8
2022-08-26T12:04:17.451Z,49.11
2022-08-26T12:05:18.499Z,49.63
2022-08-26T12:06:19.696Z,49.63
2022-08-26T12:07:23.942Z,49.53
2022-08-26T12:08:19.367Z,50.81
2022-08-26T12:09:20.606Z,50.42
2022-08-26T12:10:20.545Z,50.81
2022-08-26T12:11:21.094Z,50.04
2022-08-26T12:12:21.325Z,49.46
2022-08-26T12:13:23.148Z,50.34
2022-08-26T12:14:23.202Z,49.14
2022-08-26T12:15:24.273Z,48.35
2022-08-26T12:16:23.790Z,49.82
2022-08-26T12:17:27.854Z,50.32
2022-08-26T12:18:34.869Z,50.02
2022-08-26T12:19:25.582Z,49.24
2022-08-26T12:20:25.528Z,49.33
2022-08-26T12:21:27.060Z,48.16
2022-08-26T12:22:26.618Z,48.03
2022-08-26T12:23:27.285Z,49.7
2022-08-26T12:24:31.389Z,49.21
2022-08-26T12:25:28.439Z,49.21
2022-08-26T12:26:28.900Z,49.41
2022-08-26T12:27:29.254Z,47.13
2022-08-26T12:28:29.391Z,46.72
2022-08-26T12:29:32.780Z,48.46
2022-08-26T12:30:31.897Z,50.29
2022-08-26T12:31:32.457Z,50.49
2022-08-26T12:32:33.956Z,49.9
2022-08-26T12:33:33.533Z,50.29
2022-08-26T12:34:34.384Z,50.29
2022-08-26T12:35:34.751Z,51.86
2022-08-26T12:36:35.557Z,51.56
2022-08-26T12:37:36.237Z,51.95
2022-08-26T12:38:36.538Z,51.76
2022-08-26T12:39:37.189Z,53.03
2022-08-26T12:40:38.307Z,54.13
2022-08-26T12:41:39.237Z,54.13
2022-08-26T12:42:39.525Z,53.55
2022-08-26T12:43:40.487Z,54.6
2022-08-26T12:44:41.496Z,53.52
2022-08-26T12:45:42.276Z,53.62
2022-08-26T12:46:43.927Z,52.91
2022-08-26T12:47:48.905Z,53.2
2022-08-26T12:48:43.118Z,54.5
2022-08-26T12:49:44.028Z,54.6
2022-08-26T12:50:44.677Z,56.36
2022-08-26T12:51:45.317Z,54.6
2022-08-26T12:52:46.254Z,53.72
2022-08-26T12:53:46.762Z,54.11
2022-08-26T12:54:46.760Z,55.67
2022-08-26T12:55:47.396Z,54.5
2022-08-26T12:56:48.349Z,53.91
2022-08-26T12:57:48.364Z,54.01
2022-08-26T12:58:48.976Z,54.11
2022-08-26T12:59:49.531Z,54.01
2022-08-26T13:00:50.506Z,55.18
2022-08-26T13:01:50.669Z,55.84
2022-08-26T13:02:50.929Z,55.71
2022-08-26T13:03:51.942Z,56.67
2022-08-26T13:04:52.127Z,56.47
2022-08-26T13:05:53.444Z,58.89
2022-08-26T13:06:53.964Z,58.47
2022-08-26T13:07:54.884Z,59.64
2022-08-26T13:08:54.840Z,59.64